Time;durP1;ratioP1;P1;durP2;ratioP2;P2;SDS_P1;SDS_P2;PMS_P1;PMS_P2;Temp;Humidity;BMP_temperature;BMP_pressure;BME280_temperature;BME280_humidity;BME280_pressure;Samples;Min_cycle;Max_cycle;Signal;HPM_P1;HPM_P2
2021/12/04 00:00:22;;;;;;;31.77;19.92;;;4.60;89.60;;;;;;4905193;29;20052;-73
2021/12/04 00:02:49;;;;;;;34.08;18.58;;;4.70;89.60;;;;;;4902204;29;20411;-73
2021/12/04 00:05:15;;;;;;;29.58;20.27;;;4.70;89.70;;;;;;4905331;29;20051;-73
2021/12/04 00:07:40;;;;;;;32.70;20.80;;;4.70;89.70;;;;;;4905479;29;20052;-73
2021/12/04 00:10:07;;;;;;;33.10;18.75;;;4.70;89.70;;;;;;4892561;29;20045;-73
2021/12/04 00:12:34;;;;;;;21.55;13.68;;;4.70;89.70;;;;;;4901775;29;20048;-73
2021/12/04 00:15:01;;;;;;;27.80;18.52;;;4.70;89.70;;;;;;4904591;29;20052;-74
2021/12/04 00:17:27;;;;;;;30.23;20.48;;;4.70;89.70;;;;;;4907195;29;20044;-73
2021/12/04 00:19:54;;;;;;;28.60;18.75;;;4.70;89.70;;;;;;4906883;29;20047;-73
2021/12/04 00:22:20;;;;;;;29.40;18.95;;;4.70;89.70;;;;;;4893774;29;20052;-74
2021/12/04 00:24:46;;;;;;;27.15;17.05;;;4.70;89.70;;;;;;4909026;29;20142;-73
2021/12/04 00:27:12;;;;;;;20.33;15.80;;;4.60;89.70;;;;;;4924747;29;20198;-73
2021/12/04 00:29:38;;;;;;;25.67;16.63;;;4.70;89.70;;;;;;4924463;29;20062;-74
2021/12/04 00:32:11;;;;;;;27.08;18.42;;;4.70;89.60;;;;;;4908888;29;20056;-73
2021/12/04 00:34:42;;;;;;;27.45;19.27;;;4.70;89.60;;;;;;4906617;29;20114;-73
2021/12/04 00:50:32;;;;;;;30.52;19.42;;;4.70;89.60;;;;;;4896019;29;20577;-73
2021/12/04 00:52:58;;;;;;;26.98;18.65;;;4.70;89.60;;;;;;4910906;29;20122;-73
2021/12/04 00:55:23;;;;;;;27.98;18.00;;;4.70;89.70;;;;;;4911868;29;20407;-73
2021/12/04 00:57:49;;;;;;;25.52;17.60;;;4.70;89.70;;;;;;4905449;29;20126;-73
2021/12/04 01:00:15;;;;;;;28.50;19.02;;;4.70;90.00;;;;;;4911679;29;20484;-73
2021/12/04 01:02:43;;;;;;;24.35;14.95;;;4.70;89.70;;;;;;4911278;29;20051;-73
2021/12/04 01:05:09;;;;;;;32.03;16.25;;;4.70;89.70;;;;;;4910114;29;20052;-72
2021/12/04 01:07:35;;;;;;;21.55;14.52;;;4.70;89.70;;;;;;4911396;29;20123;-73
2021/12/04 01:10:04;;;;;;;34.13;20.15;;;4.70;89.80;;;;;;4909100;29;20039;-73
2021/12/04 01:12:29;;;;;;;31.35;18.60;;;4.70;89.80;;;;;;4895207;29;20445;-73
2021/12/04 01:14:55;;;;;;;36.50;20.23;;;4.70;89.80;;;;;;4898261;29;20092;-73
2021/12/04 01:17:21;;;;;;;36.78;21.08;;;4.70;89.80;;;;;;4911297;29;20534;-73
2021/12/04 01:19:47;;;;;;;34.42;20.27;;;4.70;89.90;;;;;;4909882;29;20048;-73
2021/12/04 01:22:12;;;;;;;25.85;15.95;;;4.70;90.00;;;;;;4908763;29;20047;-74
2021/12/04 01:24:38;;;;;;;38.25;20.48;;;4.70;90.00;;;;;;4909256;29;20108;-73
2021/12/04 01:27:04;;;;;;;41.55;19.98;;;4.70;90.00;;;;;;4905578;29;20131;-73
2021/12/04 01:29:30;;;;;;;33.42;18.75;;;4.70;90.00;;;;;;4898537;29;20088;-73
2021/12/04 01:31:55;;;;;;;42.72;21.88;;;4.70;90.00;;;;;;4911882;29;20051;-73
2021/12/04 01:34:21;;;;;;;40.47;19.38;;;4.70;90.00;;;;;;4910692;29;20526;-73
2021/12/04 01:36:47;;;;;;;36.03;17.80;;;4.60;90.00;;;;;;4908751;29;20119;-73
2021/12/04 01:39:13;;;;;;;35.88;18.02;;;4.70;90.10;;;;;;4900395;29;20437;-73
2021/12/04 01:41:39;;;;;;;42.13;20.77;;;4.60;90.10;;;;;;4910350;29;20071;-73
2021/12/04 01:44:05;;;;;;;46.13;20.92;;;4.70;90.10;;;;;;4906452;29;20131;-72
2021/12/04 01:46:32;;;;;;;44.13;21.20;;;4.60;90.10;;;;;;4909152;29;20521;-73
2021/12/04 01:48:57;;;;;;;41.90;20.38;;;4.60;90.20;;;;;;4906677;29;20039;-73
2021/12/04 01:51:24;;;;;;;46.92;22.08;;;4.60;90.20;;;;;;4910106;29;20048;-74
2021/12/04 01:53:50;;;;;;;41.40;20.95;;;4.60;90.20;;;;;;4904916;29;20380;-73
2021/12/04 01:56:17;;;;;;;39.63;20.50;;;4.60;90.20;;;;;;4894679;29;20099;-72
2021/12/04 01:58:43;;;;;;;23.40;12.32;;;4.60;90.20;;;;;;4925301;29;20127;-73
2021/12/04 02:01:10;;;;;;;40.97;18.98;;;4.60;90.20;;;;;;4912776;29;20080;-73
2021/12/04 02:03:36;;;;;;;30.70;15.32;;;4.60;90.30;;;;;;4910215;29;20126;-74
2021/12/04 02:06:02;;;;;;;41.38;21.20;;;4.60;90.30;;;;;;4905877;29;20115;-73
2021/12/04 02:08:28;;;;;;;44.75;20.42;;;4.60;90.30;;;;;;4925602;29;20511;-74
2021/12/04 02:10:58;;;;;;;43.67;19.88;;;4.60;90.30;;;;;;4907182;29;20054;-72
2021/12/04 02:13:24;;;;;;;44.63;21.58;;;4.60;90.30;;;;;;4895987;29;20044;-73
2021/12/04 02:15:50;;;;;;;36.30;18.48;;;4.50;90.30;;;;;;4898779;29;20052;-73
2021/12/04 02:18:19;;;;;;;43.40;19.58;;;4.60;90.40;;;;;;4905044;29;20558;-73
2021/12/04 02:20:46;;;;;;;48.15;20.67;;;4.60;90.40;;;;;;4908614;29;20087;-73
2021/12/04 02:23:11;;;;;;;48.35;20.80;;;4.60;90.40;;;;;;4896497;29;20611;-73
2021/12/04 02:25:38;;;;;;;43.47;20.23;;;4.60;90.40;;;;;;4909787;29;20127;-73
2021/12/04 02:28:07;;;;;;;50.17;20.55;;;4.60;90.40;;;;;;4903499;29;20459;-73
2021/12/04 02:30:37;;;;;;;47.30;20.17;;;4.60;90.40;;;;;;4905998;29;20146;-73
2021/12/04 02:33:11;;;;;;;40.30;18.90;;;4.60;90.40;;;;;;4896731;29;20048;-73
2021/12/04 02:35:42;;;;;;;42.75;19.67;;;4.60;90.40;;;;;;4918949;29;20120;-73
2021/12/04 02:38:07;;;;;;;;;;;4.60;90.40;;;;;;4899511;29;20048;-73
2021/12/04 02:40:33;;;;;;;43.60;19.17;;;4.60;90.40;;;;;;4909157;29;19927;-73
2021/12/04 02:42:59;;;;;;;42.38;17.90;;;4.60;90.40;;;;;;4904987;29;20483;-73
2021/12/04 02:45:24;;;;;;;50.83;20.10;;;4.60;90.40;;;;;;4903432;29;20088;-74
2021/12/04 02:47:51;;;;;;;49.70;20.02;;;4.60;90.40;;;;;;4879467;29;20080;-74
2021/12/04 02:50:17;;;;;;;47.42;19.80;;;4.60;90.50;;;;;;4900993;29;20118;-73
2021/12/04 02:52:44;;;;;;;56.45;19.98;;;4.60;90.50;;;;;;4909496;29;20084;-73
2021/12/04 02:55:10;;;;;;;49.10;18.85;;;4.60;90.50;;;;;;4906407;29;20060;-73
2021/12/04 02:57:41;;;;;;;44.15;18.83;;;4.60;90.50;;;;;;4901993;29;20053;-73
2021/12/04 03:00:08;;;;;;;42.20;17.75;;;4.60;90.50;;;;;;4905236;29;20067;-73
2021/12/04 03:02:34;;;;;;;31.45;13.25;;;4.60;90.50;;;;;;4880402;29;20085;-74
2021/12/04 03:05:06;;;;;;;51.78;19.50;;;4.50;90.50;;;;;;4891087;29;20359;-74
2021/12/04 03:07:32;;;;;;;56.08;19.35;;;4.60;90.60;;;;;;4908701;29;20130;-74
2021/12/04 03:09:58;;;;;;;50.10;18.55;;;4.60;90.60;;;;;;4908263;29;20606;-73
2021/12/04 03:12:25;;;;;;;45.92;17.33;;;4.60;90.60;;;;;;4892363;29;20128;-73
2021/12/04 03:14:52;;;;;;;45.75;19.15;;;4.50;90.60;;;;;;4898736;29;20039;-73
2021/12/04 03:17:19;;;;;;;55.67;19.85;;;4.60;90.60;;;;;;4908563;29;20044;-73
2021/12/04 03:19:46;;;;;;;54.05;19.45;;;4.50;90.60;;;;;;4906266;29;20060;-73
2021/12/04 03:22:14;;;;;;;47.90;19.88;;;4.60;90.60;;;;;;4908861;29;20066;-73
2021/12/04 03:24:43;;;;;;;46.35;18.33;;;4.50;90.60;;;;;;4907914;29;20151;-73
2021/12/04 03:27:09;;;;;;;38.70;15.98;;;4.50;90.60;;;;;;4905462;29;20056;-73
2021/12/04 03:29:41;;;;;;;42.50;15.82;;;4.50;90.70;;;;;;4905312;29;20056;-73
2021/12/04 03:43:07;;;;;;;32.25;13.52;;;4.50;90.70;;;;;;4906831;29;20056;-73
2021/12/04 03:45:35;;;;;;;31.15;14.70;;;4.60;91.10;;;;;;4908179;29;20454;-73
2021/12/04 03:48:08;;;;;;;39.75;16.52;;;4.50;90.60;;;;;;4907746;29;20040;-73
2021/12/04 03:50:35;;;;;;;35.80;16.42;;;4.60;90.60;;;;;;4900836;29;20495;-73
2021/12/04 03:53:01;;;;;;;20.45;8.80;;;4.50;90.60;;;;;;4900007;29;20455;-73
2021/12/04 03:55:27;;;;;;;27.42;12.65;;;4.50;90.60;;;;;;4892057;29;20458;-73
2021/12/04 03:57:53;;;;;;;26.88;14.27;;;4.50;90.60;;;;;;4908792;29;20076;-73
2021/12/04 04:00:20;;;;;;;28.13;14.30;;;4.60;90.60;;;;;;4907566;29;20058;-73
2021/12/04 04:02:46;;;;;;;34.10;15.80;;;4.60;90.60;;;;;;4912718;29;20044;-73
2021/12/04 04:05:12;;;;;;;40.75;17.23;;;4.60;90.60;;;;;;4906553;29;20522;-73
2021/12/04 04:07:38;;;;;;;27.60;13.55;;;4.60;90.60;;;;;;4900733;29;20056;-73
2021/12/04 04:10:05;;;;;;;36.75;16.90;;;4.60;90.50;;;;;;4918135;29;20044;-73
2021/12/04 04:12:31;;;;;;;33.92;16.90;;;4.60;90.50;;;;;;4907297;29;20083;-74
2021/12/04 04:14:57;;;;;;;37.20;16.67;;;4.50;90.50;;;;;;4896858;29;20036;-74
2021/12/04 04:17:26;;;;;;;33.83;16.30;;;4.60;90.50;;;;;;4898111;29;20052;-74
2021/12/04 04:19:52;;;;;;;31.95;16.75;;;4.50;90.50;;;;;;4907846;29;20187;-74
2021/12/04 04:22:17;;;;;;;32.78;16.50;;;4.60;90.50;;;;;;4907744;29;20066;-73
2021/12/04 04:24:43;;;;;;;28.27;14.70;;;4.50;90.50;;;;;;4896197;29;20040;-73
2021/12/04 04:27:09;;;;;;;42.95;16.98;;;4.50;90.50;;;;;;4899675;29;20372;-73
2021/12/04 04:29:35;;;;;;;33.95;15.82;;;4.50;90.50;;;;;;4907467;29;20498;-73
2021/12/04 04:32:00;;;;;;;29.67;16.02;;;4.50;90.60;;;;;;4908610;29;20052;-73
2021/12/04 05:14:32;;;;;;;32.17;14.77;;;4.50;90.60;;;;;;4926021;29;20173;-74
2021/12/04 05:22:12;;;;;;;25.77;13.30;;;4.50;90.70;;;;;;4911146;29;20063;-74
2021/12/04 05:24:39;;;;;;;35.65;12.77;;;4.50;90.70;;;;;;4883878;29;20048;-74
2021/12/04 05:27:05;;;;;;;32.08;14.32;;;4.40;90.70;;;;;;4901804;29;20055;-74
2021/12/04 05:29:31;;;;;;;33.67;14.43;;;4.50;90.70;;;;;;4905942;29;20060;-74
2021/12/04 05:31:57;;;;;;;28.75;13.00;;;4.40;90.70;;;;;;4896184;29;20048;-74
2021/12/04 05:34:23;;;;;;;29.35;13.80;;;4.40;90.70;;;;;;4889853;29;20455;-74
2021/12/04 05:36:49;;;;;;;28.73;12.88;;;4.50;90.70;;;;;;4899557;29;20512;-74
2021/12/04 05:39:15;;;;;;;37.45;14.00;;;4.40;90.70;;;;;;4898749;29;20133;-74
2021/12/04 05:41:41;;;;;;;42.03;13.98;;;4.40;90.70;;;;;;4906199;29;20099;-74
2021/12/04 05:44:09;;;;;;;39.17;14.70;;;4.50;90.80;;;;;;4908868;29;20040;-73
2021/12/04 05:46:40;;;;;;;37.15;13.85;;;4.40;90.70;;;;;;4898011;29;20099;-73
2021/12/04 05:49:20;;;;;;;40.42;13.60;;;4.40;90.80;;;;;;4923383;29;20495;-73
2021/12/04 05:52:04;;;;;;;38.58;13.80;;;4.40;90.80;;;;;;4904088;29;20051;-73
2021/12/04 05:57:06;;;;;;;33.75;13.15;;;4.40;90.80;;;;;;4896076;29;20601;-74
2021/12/04 05:59:32;;;;;;;32.88;14.00;;;4.40;90.80;;;;;;4910295;29;20040;-73
2021/12/04 06:01:59;;;;;;;33.65;13.27;;;4.40;90.80;;;;;;4916294;29;20043;-74
2021/12/04 06:04:26;;;;;;;37.75;13.60;;;4.40;90.80;;;;;;4909934;29;20048;-73
2021/12/04 06:06:52;;;;;;;34.25;12.65;;;4.40;90.80;;;;;;4910379;29;20052;-74
2021/12/04 06:09:18;;;;;;;33.33;13.43;;;4.40;90.90;;;;;;4909164;29;20047;-73
2021/12/04 06:11:46;;;;;;;26.63;11.70;;;4.40;90.90;;;;;;4908830;29;20476;-74
2021/12/04 06:14:12;;;;;;;27.58;12.13;;;4.40;90.90;;;;;;4923557;29;20044;-73
2021/12/04 06:16:38;;;;;;;30.20;12.38;;;4.40;90.90;;;;;;4923356;29;20809;-74
2021/12/04 06:24:33;;;;;;;24.73;11.80;;;4.40;90.90;;;;;;4908462;29;20044;-74
2021/12/04 06:26:58;;;;;;;24.17;11.05;;;4.40;90.90;;;;;;4893053;29;20505;-73
2021/12/04 06:29:24;;;;;;;24.85;11.20;;;4.40;90.90;;;;;;4924578;29;20404;-73
2021/12/04 06:31:50;;;;;;;26.75;10.88;;;4.40;90.90;;;;;;4910342;29;20055;-73
2021/12/04 06:34:17;;;;;;;33.63;11.85;;;4.40;90.90;;;;;;4909214;29;20040;-73
2021/12/04 06:36:42;;;;;;;27.98;10.40;;;4.40;91.00;;;;;;4909873;29;20099;-73
2021/12/04 06:39:09;;;;;;;29.85;11.30;;;4.40;91.40;;;;;;4909456;29;20052;-74
2021/12/04 06:41:35;;;;;;;23.63;11.32;;;4.40;91.00;;;;;;4893319;29;20058;-73
2021/12/04 06:44:01;;;;;;;27.55;12.07;;;4.40;91.00;;;;;;4909183;29;20044;-73
2021/12/04 06:46:28;;;;;;;22.95;10.38;;;4.40;91.00;;;;;;4908942;29;20044;-76
2021/12/04 06:54:01;;;;;;;23.42;9.57;;;4.40;90.90;;;;;;4909530;29;20509;-76
2021/12/04 06:56:33;;;;;;;23.88;10.07;;;4.30;90.90;;;;;;4908340;29;20048;-76
2021/12/04 06:59:03;;;;;;;17.45;9.52;;;4.30;90.90;;;;;;4908897;29;20455;-76
2021/12/04 07:01:29;;;;;;;20.15;9.32;;;4.30;90.90;;;;;;4914113;29;20130;-76
2021/12/04 07:03:54;;;;;;;19.10;9.45;;;4.30;90.90;;;;;;4909006;29;20032;-76
2021/12/04 07:06:20;;;;;;;21.38;10.23;;;4.30;90.90;;;;;;4892831;29;20047;-76
2021/12/04 07:08:46;;;;;;;18.65;9.95;;;4.30;90.90;;;;;;4908575;29;20192;-76
2021/12/04 07:11:11;;;;;;;21.58;10.35;;;4.30;90.90;;;;;;4909176;29;20467;-76
2021/12/04 07:13:37;;;;;;;21.10;10.75;;;4.30;90.90;;;;;;4896849;29;20048;-76
2021/12/04 07:16:05;;;;;;;17.70;9.75;;;4.30;90.90;;;;;;4893355;29;20123;-76
2021/12/04 07:18:32;;;;;;;19.67;10.45;;;4.30;90.90;;;;;;4893036;29;20175;-76
2021/12/04 07:20:58;;;;;;;25.38;10.35;;;4.30;91.00;;;;;;4908678;29;20056;-76
2021/12/04 07:23:24;;;;;;;28.88;10.63;;;4.30;91.00;;;;;;4908552;29;20510;-76
2021/12/04 07:25:50;;;;;;;24.38;10.85;;;4.30;91.00;;;;;;4908575;29;20056;-76
2021/12/04 07:28:16;;;;;;;27.13;11.50;;;4.30;91.00;;;;;;4892678;29;20048;-76
2021/12/04 07:30:42;;;;;;;28.02;11.35;;;4.30;91.00;;;;;;4891451;29;20056;-76
2021/12/04 07:33:07;;;;;;;26.20;10.95;;;4.30;91.00;;;;;;4894006;29;20111;-76
2021/12/04 07:35:33;;;;;;;25.75;10.75;;;4.30;91.00;;;;;;4892154;29;20044;-76
2021/12/04 07:38:00;;;;;;;34.60;11.70;;;4.30;91.00;;;;;;4893181;29;20080;-76
2021/12/04 07:40:27;;;;;;;28.77;11.57;;;4.30;91.00;;;;;;4877051;29;20130;-76
2021/12/04 07:42:52;;;;;;;29.25;12.65;;;4.30;91.00;;;;;;4908475;29;20063;-76
2021/12/04 07:45:18;;;;;;;36.22;12.95;;;4.30;91.00;;;;;;4909023;29;20507;-76
2021/12/04 07:47:44;;;;;;;29.55;12.23;;;4.30;91.00;;;;;;4908121;29;20509;-76
2021/12/04 07:50:10;;;;;;;32.92;12.43;;;4.30;91.00;;;;;;4908668;29;20044;-76
2021/12/04 07:52:38;;;;;;;36.78;11.75;;;4.30;91.00;;;;;;4907562;29;20055;-76
2021/12/04 07:55:06;;;;;;;27.50;11.13;;;4.40;91.10;;;;;;4908548;29;20048;-76
2021/12/04 07:57:32;;;;;;;29.80;12.02;;;4.30;91.00;;;;;;4908095;29;20135;-76
2021/12/04 07:59:57;;;;;;;28.88;11.00;;;4.40;91.10;;;;;;4892656;29;20465;-76
2021/12/04 08:02:24;;;;;;;35.00;12.23;;;4.40;91.00;;;;;;4906990;29;20503;-76
2021/12/04 08:04:50;;;;;;;24.52;11.77;;;4.40;91.00;;;;;;4875704;29;20103;-76
2021/12/04 08:07:16;;;;;;;33.22;11.77;;;4.30;91.00;;;;;;4908323;29;20495;-74
2021/12/04 08:09:41;;;;;;;21.35;10.38;;;4.30;91.00;;;;;;4891379;29;20070;-74
2021/12/04 08:12:09;;;;;;;18.75;10.80;;;4.30;91.00;;;;;;4908094;29;20394;-74
2021/12/04 08:14:36;;;;;;;25.73;11.45;;;4.30;91.00;;;;;;4892145;29;20051;-74
2021/12/04 08:17:02;;;;;;;23.42;9.85;;;4.30;91.00;;;;;;4907755;29;20052;-74
2021/12/04 08:19:28;;;;;;;24.55;10.55;;;4.40;91.10;;;;;;4907452;29;20435;-74
2021/12/04 08:21:54;;;;;;;30.15;11.50;;;4.40;91.00;;;;;;4907882;29;20048;-74
2021/12/04 08:24:19;;;;;;;23.38;9.75;;;4.40;91.00;;;;;;4908401;29;20130;-74
2021/12/04 08:26:46;;;;;;;30.08;11.35;;;4.40;91.10;;;;;;4907731;29;20050;-74
2021/12/04 08:29:13;;;;;;;27.45;10.93;;;4.40;91.10;;;;;;4907971;29;20128;-74
2021/12/04 08:31:40;;;;;;;30.00;11.45;;;4.40;91.10;;;;;;4908206;29;20414;-74
2021/12/04 08:34:06;;;;;;;27.67;11.35;;;4.40;91.10;;;;;;4907533;29;20748;-74
2021/12/04 08:36:32;;;;;;;25.92;10.65;;;4.40;91.10;;;;;;4908053;29;20491;-74
2021/12/04 08:39:00;;;;;;;20.65;8.75;;;4.40;91.10;;;;;;4907110;29;20071;-74
2021/12/04 08:41:27;;;;;;;20.15;9.65;;;4.40;91.00;;;;;;4910333;29;20472;-74
2021/12/04 08:43:54;;;;;;;27.63;11.30;;;4.40;91.00;;;;;;4912655;29;20151;-74
2021/12/04 08:46:20;;;;;;;28.85;12.48;;;4.50;91.00;;;;;;4895584;29;20044;-74
2021/12/04 08:48:49;;;;;;;23.73;10.25;;;4.40;91.00;;;;;;4911018;29;20087;-73
2021/12/04 08:51:17;;;;;;;23.70;12.43;;;4.40;91.00;;;;;;4911373;29;20483;-74
2021/12/04 08:53:43;;;;;;;24.02;11.73;;;4.40;90.90;;;;;;4888589;29;20052;-74
2021/12/04 08:56:09;;;;;;;22.50;12.27;;;4.40;90.90;;;;;;4910816;29;20036;-74
2021/12/04 08:58:39;;;;;;;21.05;10.70;;;4.50;90.90;;;;;;4910868;29;20092;-74
2021/12/04 09:01:12;;;;;;;20.70;11.13;;;4.50;90.90;;;;;;4911169;29;20055;-74
2021/12/04 09:03:44;;;;;;;28.08;12.68;;;4.50;90.90;;;;;;4910683;29;20047;-74
2021/12/04 09:06:10;;;;;;;16.83;11.52;;;4.50;90.90;;;;;;4912047;29;20048;-74
2021/12/04 09:08:37;;;;;;;23.60;11.88;;;4.50;90.80;;;;;;4910363;29;20118;-74
2021/12/04 09:11:12;;;;;;;20.08;11.63;;;4.60;90.80;;;;;;4926015;29;20055;-74
2021/12/04 09:13:38;;;;;;;17.65;10.93;;;4.60;90.80;;;;;;4923658;29;20160;-74
2021/12/04 09:16:05;;;;;;;19.02;10.70;;;4.60;90.70;;;;;;4923767;29;20040;-74
2021/12/04 09:18:31;;;;;;;19.88;11.52;;;4.60;90.70;;;;;;4907961;29;20520;-74
2021/12/04 09:20:57;;;;;;;15.98;10.60;;;4.60;90.70;;;;;;4909013;29;20044;-74
2021/12/04 09:23:29;;;;;;;16.35;10.18;;;4.60;90.60;;;;;;4897341;29;20044;-74
2021/12/04 09:25:57;;;;;;;15.50;10.68;;;4.60;90.60;;;;;;4893954;29;20052;-74
2021/12/04 09:28:26;;;;;;;16.30;10.50;;;4.60;90.60;;;;;;4907991;29;20063;-74
2021/12/04 10:12:15;;;;;;;;;;;4.80;89.60;;;;;;4909679;29;20040;-74
2021/12/04 10:17:53;;;;;;;9.40;6.93;;;4.80;89.90;;;;;;4888800;29;20047;-74
2021/12/04 10:33:53;;;;;;;14.13;10.80;;;5.00;90.00;;;;;;4906763;29;20425;-74
2021/12/04 10:36:29;;;;;;;12.55;10.43;;;5.00;89.80;;;;;;4909250;29;20067;-74
2021/12/04 10:38:55;;;;;;;12.27;9.45;;;5.00;89.70;;;;;;4908006;29;20498;-74
2021/12/04 10:41:29;;;;;;;13.95;10.95;;;5.00;89.50;;;;;;4909202;29;20051;-74
2021/12/04 10:43:55;;;;;;;13.93;10.60;;;5.00;89.50;;;;;;4908793;29;20654;-74
2021/12/04 10:46:22;;;;;;;13.75;9.18;;;5.00;89.50;;;;;;4903929;29;20080;-74
2021/12/04 10:49:03;;;;;;;11.60;7.35;;;4.90;89.50;;;;;;4907979;29;20079;-73
2021/12/04 10:51:47;;;;;;;12.00;9.18;;;4.90;89.50;;;;;;4908730;29;20604;-74
2021/12/04 10:54:24;;;;;;;13.32;9.38;;;5.00;89.40;;;;;;4908016;29;20040;-74
2021/12/04 10:57:56;;;;;;;10.73;8.80;;;5.00;89.50;;;;;;4907633;29;20044;-74
2021/12/04 10:59:55;;;;;;;9.48;8.25;;;5.00;89.20;;;;;;4901739;29;20044;-74
2021/12/04 11:02:28;;;;;;;10.32;8.32;;;5.00;89.30;;;;;;4906428;29;20108;-74
2021/12/04 11:05:02;;;;;;;15.57;10.25;;;5.00;89.20;;;;;;4893492;29;20112;-74
2021/12/04 11:21:59;;;;;;;18.63;12.02;;;5.00;89.40;;;;;;4906268;29;20048;-74
2021/12/04 11:38:03;;;;;;;29.67;16.20;;;4.90;89.00;;;;;;4904966;29;20044;-74
2021/12/04 11:43:03;;;;;;;28.10;14.63;;;5.00;89.20;;;;;;4904753;29;20082;-73
2021/12/04 11:46:00;;;;;;;32.38;16.73;;;4.90;89.00;;;;;;4906347;29;20577;-74
2021/12/04 11:48:32;;;;;;;31.55;18.38;;;4.90;89.00;;;;;;4906835;29;20095;-74
2021/12/04 11:50:59;;;;;;;35.35;19.15;;;4.90;88.90;;;;;;4906593;29;20163;-74
2021/12/04 11:53:25;;;;;;;37.35;21.08;;;5.00;89.00;;;;;;4907501;29;20032;-74
2021/12/04 11:55:51;;;;;;;32.22;18.85;;;5.00;89.30;;;;;;4906584;29;20047;-74
2021/12/04 11:58:24;;;;;;;32.28;18.35;;;5.00;89.20;;;;;;4896493;29;20044;-74
2021/12/04 12:00:54;;;;;;;31.05;16.92;;;5.00;89.30;;;;;;4907360;29;20152;-74
2021/12/04 12:03:23;;;;;;;30.60;16.88;;;5.00;89.10;;;;;;4910769;29;20442;-74
2021/12/04 12:05:55;;;;;;;33.63;18.83;;;5.00;89.00;;;;;;4907520;29;20088;-74
2021/12/04 12:08:26;;;;;;;32.42;18.35;;;5.00;89.10;;;;;;4907710;29;20403;-74
2021/12/04 12:10:59;;;;;;;35.95;20.65;;;5.00;89.20;;;;;;4891691;29;20161;-74
2021/12/04 12:13:56;;;;;;;36.95;19.95;;;5.00;89.20;;;;;;4907850;29;20052;-74
2021/12/04 12:16:26;;;;;;;17.85;9.52;;;5.00;89.20;;;;;;4904489;29;20127;-74
2021/12/04 12:18:56;;;;;;;;;;;5.00;89.20;;;;;;4911478;29;20063;-74
2021/12/04 12:22:18;;;;;;;34.28;19.08;;;5.00;88.90;;;;;;4911887;29;19935;-74
2021/12/04 12:27:50;;;;;;;30.42;17.98;;;5.10;89.00;;;;;;4910168;29;20060;-74
2021/12/04 12:38:37;;;;;;;39.80;21.60;;;5.00;89.20;;;;;;4907881;29;20079;-74
2021/12/04 12:41:07;;;;;;;35.88;21.67;;;5.00;89.20;;;;;;4910022;29;20032;-74
2021/12/04 12:43:59;;;;;;;27.98;15.30;;;5.00;89.50;;;;;;4895948;29;20047;-74
2021/12/04 12:46:38;;;;;;;43.35;22.42;;;5.00;89.80;;;;;;4910910;29;20044;-74
2021/12/04 12:49:16;;;;;;;35.03;20.08;;;4.90;89.80;;;;;;4910574;29;20522;-74
2021/12/04 12:51:45;;;;;;;43.33;20.15;;;5.00;90.00;;;;;;4910665;29;20071;-74
2021/12/04 12:54:28;;;;;;;34.80;19.75;;;5.00;90.10;;;;;;4910788;29;20052;-74
2021/12/04 12:57:06;;;;;;;38.63;20.40;;;5.00;90.10;;;;;;4908387;29;20044;-74
2021/12/04 12:59:45;;;;;;;23.58;12.25;;;5.00;90.20;;;;;;4910853;29;20048;-74
2021/12/04 13:11:40;;;;;;;27.33;16.60;;;5.00;90.10;;;;;;4896924;29;20079;-74
2021/12/04 13:13:33;;;;;;;36.15;19.50;;;5.00;90.10;;;;;;4909971;29;20055;-74
2021/12/04 13:16:07;;;;;;;27.95;15.25;;;5.00;90.10;;;;;;4909931;29;20040;-74
2021/12/04 13:18:36;;;;;;;30.23;16.90;;;4.90;90.10;;;;;;4908652;29;20056;-74
2021/12/04 13:21:08;;;;;;;33.90;16.35;;;4.90;90.10;;;;;;4910303;29;20478;-74
2021/12/04 13:23:34;;;;;;;28.52;16.65;;;4.90;90.00;;;;;;4898251;29;20131;-74
2021/12/04 13:26:06;;;;;;;32.85;19.42;;;4.90;90.00;;;;;;4909817;29;20051;-74
2021/12/04 13:28:35;;;;;;;34.35;19.00;;;4.90;90.10;;;;;;4909121;29;20114;-74
2021/12/04 13:31:02;;;;;;;24.33;14.23;;;4.90;90.20;;;;;;4910985;29;20055;-74
2021/12/04 13:33:31;;;;;;;28.75;16.10;;;4.90;90.20;;;;;;4910490;29;20428;-74
2021/12/04 13:35:57;;;;;;;33.35;17.58;;;4.90;90.20;;;;;;4910938;29;20111;-74
2021/12/04 13:38:25;;;;;;;32.97;17.65;;;4.90;90.20;;;;;;4910517;29;20518;-74
2021/12/04 13:40:54;;;;;;;29.50;16.90;;;4.90;90.20;;;;;;4910406;29;20055;-75
2021/12/04 13:43:21;;;;;;;25.52;13.07;;;4.80;90.30;;;;;;4895135;29;20047;-74
2021/12/04 13:45:57;;;;;;;23.50;15.38;;;4.90;90.30;;;;;;4926626;29;20451;-74
2021/12/04 13:48:24;;;;;;;35.53;15.98;;;4.90;90.30;;;;;;4894869;29;20495;-75
2021/12/04 13:50:50;;;;;;;24.60;14.10;;;4.90;90.30;;;;;;4910509;29;20902;-74
2021/12/04 13:53:21;;;;;;;28.00;16.33;;;4.80;90.30;;;;;;4894461;29;20507;-74
2021/12/04 13:55:52;;;;;;;25.77;16.45;;;4.80;90.30;;;;;;4897952;29;20087;-75
2021/12/04 13:58:18;;;;;;;24.55;15.90;;;4.90;90.30;;;;;;4909839;29;20044;-74
2021/12/04 14:00:44;;;;;;;34.10;16.95;;;4.90;90.30;;;;;;4910321;29;20135;-75
2021/12/04 14:03:11;;;;;;;20.50;14.38;;;4.90;90.40;;;;;;4891001;29;20476;-74
2021/12/04 14:05:38;;;;;;;24.23;14.85;;;4.90;90.30;;;;;;4894993;29;20036;-75
2021/12/04 14:08:05;;;;;;;25.65;13.57;;;4.90;90.40;;;;;;4908505;29;20426;-74
2021/12/04 14:10:37;;;;;;;23.15;13.60;;;4.90;90.40;;;;;;4909913;29;20506;-75
2021/12/04 14:13:04;;;;;;;34.78;16.85;;;4.90;90.30;;;;;;4909136;29;20072;-74
2021/12/04 14:15:31;;;;;;;31.10;16.65;;;4.90;90.30;;;;;;4909626;29;20099;-74
2021/12/04 14:18:00;;;;;;;38.20;17.60;;;4.90;90.40;;;;;;4909242;29;20047;-74
2021/12/04 14:20:26;;;;;;;33.50;16.33;;;4.90;90.40;;;;;;4909558;29;20490;-75
2021/12/04 14:22:54;;;;;;;42.58;17.95;;;4.90;90.40;;;;;;4910270;29;20108;-77
2021/12/04 14:25:22;;;;;;;35.60;16.58;;;4.90;90.40;;;;;;4909050;29;20095;-74
2021/12/04 14:27:50;;;;;;;41.38;18.08;;;4.90;90.40;;;;;;4909966;29;20135;-74
2021/12/04 14:30:33;;;;;;;45.80;20.35;;;4.90;90.40;;;;;;4909056;29;20499;-74
2021/12/04 14:33:01;;;;;;;40.08;17.38;;;4.90;90.40;;;;;;4893806;29;20079;-74
2021/12/04 14:35:31;;;;;;;37.22;19.88;;;4.90;90.40;;;;;;4910041;29;20084;-75
2021/12/04 14:38:00;;;;;;;36.65;17.25;;;4.90;90.40;;;;;;4909232;29;20048;-74
2021/12/04 14:40:30;;;;;;;38.88;17.98;;;5.00;90.40;;;;;;4910013;29;20266;-75
2021/12/04 14:42:56;;;;;;;;;;;4.90;90.30;;;;;;4909305;29;20618;-74
2021/12/04 14:45:27;;;;;;;40.55;19.45;;;4.90;90.20;;;;;;4908668;29;20022;-75
2021/12/04 14:48:03;;;;;;;31.20;15.00;;;4.90;90.20;;;;;;4909129;29;20239;-75
2021/12/04 14:50:30;;;;;;;36.40;18.13;;;4.90;90.20;;;;;;4902303;29;20052;-75
2021/12/04 14:53:00;;;;;;;42.38;18.38;;;4.90;90.20;;;;;;4890301;29;20079;-75
2021/12/04 14:55:32;;;;;;;43.97;19.38;;;4.90;90.10;;;;;;4901359;29;20040;-75
2021/12/04 14:57:58;;;;;;;42.40;18.20;;;4.90;90.10;;;;;;4921464;29;20091;-75
2021/12/04 15:00:35;;;;;;;40.78;18.33;;;4.90;90.00;;;;;;4897403;29;20041;-75
2021/12/04 15:03:07;;;;;;;59.97;29.00;;;4.90;89.90;;;;;;4912226;29;20196;-75
2021/12/04 15:05:38;;;;;;;49.33;21.17;;;4.90;90.00;;;;;;4907084;29;20467;-75
2021/12/04 15:08:20;;;;;;;61.55;27.52;;;4.90;90.00;;;;;;4906350;29;20074;-75
2021/12/04 15:11:02;;;;;;;61.63;27.38;;;4.90;90.10;;;;;;4907196;29;20059;-75
2021/12/04 15:13:34;;;;;;;74.85;28.90;;;4.90;90.20;;;;;;4890672;29;20055;-75
2021/12/04 15:16:05;;;;;;;82.43;33.70;;;4.90;90.20;;;;;;4890582;29;20545;-75
2021/12/04 15:18:33;;;;;;;63.80;26.25;;;4.90;90.20;;;;;;4923064;29;20395;-75
2021/12/04 15:21:04;;;;;;;54.47;26.42;;;4.90;90.20;;;;;;4890358;29;20116;-75
2021/12/04 15:23:31;;;;;;;42.50;20.67;;;4.90;90.20;;;;;;4899637;29;20495;-75
2021/12/04 15:26:21;;;;;;;48.28;21.90;;;4.90;90.20;;;;;;4905837;29;20055;-75
2021/12/04 15:28:51;;;;;;;42.47;19.25;;;4.90;90.20;;;;;;4888580;29;20455;-75
2021/12/04 15:31:19;;;;;;;34.50;18.42;;;4.90;90.20;;;;;;4898434;29;20080;-75
2021/12/04 15:33:51;;;;;;;45.05;20.77;;;4.90;90.20;;;;;;4908239;29;20040;-75
2021/12/04 15:36:28;;;;;;;40.80;20.02;;;4.90;90.20;;;;;;4908440;29;20135;-75
2021/12/04 15:38:57;;;;;;;47.55;20.58;;;4.90;90.30;;;;;;4907349;29;20081;-75
2021/12/04 15:54:33;;;;;;;46.17;17.85;;;4.90;90.20;;;;;;4906861;29;20074;-75
2021/12/04 15:57:00;;;;;;;40.60;18.05;;;4.90;90.20;;;;;;4918054;29;20091;-75
2021/12/04 15:59:30;;;;;;;46.50;19.20;;;4.90;90.20;;;;;;4907568;29;20040;-75
2021/12/04 16:02:11;;;;;;;43.50;19.40;;;4.90;90.20;;;;;;4921134;29;20402;-75
2021/12/04 16:04:38;;;;;;;35.33;19.33;;;4.90;90.20;;;;;;4905337;29;20582;-75
2021/12/04 16:07:04;;;;;;;42.45;18.88;;;4.90;90.20;;;;;;4905147;29;20040;-75
2021/12/04 16:09:37;;;;;;;49.05;19.90;;;4.90;90.20;;;;;;4918669;29;20044;-75